sensor_id;sensor_type;location;lat;lon;timestamp;temperature;humidity
26583;DHT22;14230;45.382;10.998;2023-02-27T00:01:50;6.00;99.90
26583;DHT22;14230;45.382;10.998;2023-02-27T00:04:17;6.00;99.90
26583;DHT22;14230;45.382;10.998;2023-02-27T00:06:45;6.00;99.90
26583;DHT22;14230;45.382;10.998;2023-02-27T00:09:13;6.00;99.90
26583;DHT22;14230;45.382;10.998;2023-02-27T00:11:40;6.00;99.90
26583;DHT22;14230;45.382;10.998;2023-02-27T00:14:09;6.00;99.90
26583;DHT22;14230;45.382;10.998;2023-02-27T00:16:36;6.00;99.90
26583;DHT22;14230;45.382;10.998;2023-02-27T00:19:04;6.00;99.90
26583;DHT22;14230;45.382;10.998;2023-02-27T00:21:32;6.00;99.90
26583;DHT22;14230;45.382;10.998;2023-02-27T00:24:02;6.00;99.90
26583;DHT22;14230;45.382;10.998;2023-02-27T00:26:30;6.00;99.90
26583;DHT22;14230;45.382;10.998;2023-02-27T00:28:57;6.00;99.90
26583;DHT22;14230;45.382;10.998;2023-02-27T00:31:25;6.10;99.90
26583;DHT22;14230;45.382;10.998;2023-02-27T00:33:53;6.00;99.90
26583;DHT22;14230;45.382;10.998;2023-02-27T00:36:21;6.00;99.90
26583;DHT22;14230;45.382;10.998;2023-02-27T00:38:48;6.00;99.90
26583;DHT22;14230;45.382;10.998;2023-02-27T00:41:17;6.00;99.90
26583;DHT22;14230;45.382;10.998;2023-02-27T00:43:44;6.00;99.90
26583;DHT22;14230;45.382;10.998;2023-02-27T00:46:12;6.00;99.90
26583;DHT22;14230;45.382;10.998;2023-02-27T00:48:39;5.90;99.90
26583;DHT22;14230;45.382;10.998;2023-02-27T00:51:07;5.90;99.90
26583;DHT22;14230;45.382;10.998;2023-02-27T00:53:35;5.80;99.90
26583;DHT22;14230;45.382;10.998;2023-02-27T00:56:02;5.90;99.90
26583;DHT22;14230;45.382;10.998;2023-02-27T00:58:31;5.80;99.90
26583;DHT22;14230;45.382;10.998;2023-02-27T01:00:59;5.80;99.90
26583;DHT22;14230;45.382;10.998;2023-02-27T01:03:27;5.80;99.90
26583;DHT22;14230;45.382;10.998;2023-02-27T01:05:55;5.90;99.90
26583;DHT22;14230;45.382;10.998;2023-02-27T01:08:24;5.90;99.90
26583;DHT22;14230;45.382;10.998;2023-02-27T01:10:54;5.90;99.90
26583;DHT22;14230;45.382;10.998;2023-02-27T01:13:22;5.80;99.90
26583;DHT22;14230;45.382;10.998;2023-02-27T01:15:49;5.80;99.90
26583;DHT22;14230;45.382;10.998;2023-02-27T01:18:17;5.80;99.90
26583;DHT22;14230;45.382;10.998;2023-02-27T01:20:44;5.80;99.90
26583;DHT22;14230;45.382;10.998;2023-02-27T01:23:12;5.80;99.90
26583;DHT22;14230;45.382;10.998;2023-02-27T01:25:41;5.90;99.90
26583;DHT22;14230;45.382;10.998;2023-02-27T01:28:09;5.90;99.90
26583;DHT22;14230;45.382;10.998;2023-02-27T01:30:36;5.80;99.90
26583;DHT22;14230;45.382;10.998;2023-02-27T01:33:04;5.80;99.90
26583;DHT22;14230;45.382;10.998;2023-02-27T01:35:32;5.90;99.90
26583;DHT22;14230;45.382;10.998;2023-02-27T01:38:00;5.90;99.90
26583;DHT22;14230;45.382;10.998;2023-02-27T01:40:27;5.80;99.90
26583;DHT22;14230;45.382;10.998;2023-02-27T01:42:55;5.80;99.90
26583;DHT22;14230;45.382;10.998;2023-02-27T01:45:29;5.90;99.90
26583;DHT22;14230;45.382;10.998;2023-02-27T01:48:20;5.80;99.90
26583;DHT22;14230;45.382;10.998;2023-02-27T01:53:18;5.70;99.90
26583;DHT22;14230;45.382;10.998;2023-02-27T01:55:48;5.80;99.90
26583;DHT22;14230;45.382;10.998;2023-02-27T01:58:16;5.70;99.90
26583;DHT22;14230;45.382;10.998;2023-02-27T02:00:44;5.80;99.90
26583;DHT22;14230;45.382;10.998;2023-02-27T02:03:24;5.70;99.90
26583;DHT22;14230;45.382;10.998;2023-02-27T02:05:54;5.60;99.90
26583;DHT22;14230;45.382;10.998;2023-02-27T02:08:25;5.60;99.90
26583;DHT22;14230;45.382;10.998;2023-02-27T02:10:54;5.60;99.90
26583;DHT22;14230;45.382;10.998;2023-02-27T02:13:24;5.50;99.90
26583;DHT22;14230;45.382;10.998;2023-02-27T02:24:41;5.50;99.90
26583;DHT22;14230;45.382;10.998;2023-02-27T02:30:03;5.40;99.90
26583;DHT22;14230;45.382;10.998;2023-02-27T02:44:17;5.40;99.90
26583;DHT22;14230;45.382;10.998;2023-02-27T02:50:08;5.40;99.90
26583;DHT22;14230;45.382;10.998;2023-02-27T02:53:20;5.30;99.90
26583;DHT22;14230;45.382;10.998;2023-02-27T02:56:09;5.30;99.90
26583;DHT22;14230;45.382;10.998;2023-02-27T02:58:46;5.30;99.90
26583;DHT22;14230;45.382;10.998;2023-02-27T03:02:02;5.40;99.90
26583;DHT22;14230;45.382;10.998;2023-02-27T03:09:43;5.30;99.90
26583;DHT22;14230;45.382;10.998;2023-02-27T03:12:15;5.40;99.90
26583;DHT22;14230;45.382;10.998;2023-02-27T03:15:20;5.40;99.90
26583;DHT22;14230;45.382;10.998;2023-02-27T03:17:58;5.40;99.90
26583;DHT22;14230;45.382;10.998;2023-02-27T03:20:33;5.40;99.90
26583;DHT22;14230;45.382;10.998;2023-02-27T03:23:08;5.40;99.90
26583;DHT22;14230;45.382;10.998;2023-02-27T03:25:38;5.40;99.90
26583;DHT22;14230;45.382;10.998;2023-02-27T03:28:10;5.30;99.90
26583;DHT22;14230;45.382;10.998;2023-02-27T03:30:44;5.40;99.90
26583;DHT22;14230;45.382;10.998;2023-02-27T03:33:48;5.40;99.90
26583;DHT22;14230;45.382;10.998;2023-02-27T03:36:27;5.40;99.90
26583;DHT22;14230;45.382;10.998;2023-02-27T03:39:07;5.40;99.90
26583;DHT22;14230;45.382;10.998;2023-02-27T03:44:38;5.40;99.90
26583;DHT22;14230;45.382;10.998;2023-02-27T03:47:10;5.40;99.90
26583;DHT22;14230;45.382;10.998;2023-02-27T03:49:38;5.40;99.90
26583;DHT22;14230;45.382;10.998;2023-02-27T03:52:07;5.40;99.90
26583;DHT22;14230;45.382;10.998;2023-02-27T03:54:37;5.40;99.90
26583;DHT22;14230;45.382;10.998;2023-02-27T03:57:07;5.40;99.90
26583;DHT22;14230;45.382;10.998;2023-02-27T03:59:36;5.40;99.90
26583;DHT22;14230;45.382;10.998;2023-02-27T04:02:04;5.40;99.90
26583;DHT22;14230;45.382;10.998;2023-02-27T04:04:34;5.30;99.90
26583;DHT22;14230;45.382;10.998;2023-02-27T04:28:39;5.40;99.90
26583;DHT22;14230;45.382;10.998;2023-02-27T04:31:37;5.40;99.90
26583;DHT22;14230;45.382;10.998;2023-02-27T04:34:20;5.40;99.90
26583;DHT22;14230;45.382;10.998;2023-02-27T04:37:00;5.40;99.90
26583;DHT22;14230;45.382;10.998;2023-02-27T04:39:54;5.50;99.90
26583;DHT22;14230;45.382;10.998;2023-02-27T04:42:29;5.40;99.90
26583;DHT22;14230;45.382;10.998;2023-02-27T04:45:01;5.50;99.90
26583;DHT22;14230;45.382;10.998;2023-02-27T04:47:35;5.50;99.90
26583;DHT22;14230;45.382;10.998;2023-02-27T04:50:08;5.50;99.90
26583;DHT22;14230;45.382;10.998;2023-02-27T04:52:40;5.50;99.90
26583;DHT22;14230;45.382;10.998;2023-02-27T04:57:40;5.70;99.90
26583;DHT22;14230;45.382;10.998;2023-02-27T05:00:11;5.70;99.90
26583;DHT22;14230;45.382;10.998;2023-02-27T05:02:44;5.80;99.90
26583;DHT22;14230;45.382;10.998;2023-02-27T05:05:19;5.80;99.90
26583;DHT22;14230;45.382;10.998;2023-02-27T05:08:08;5.80;99.90
26583;DHT22;14230;45.382;10.998;2023-02-27T05:11:02;5.80;99.90
26583;DHT22;14230;45.382;10.998;2023-02-27T05:13:34;5.80;99.90
26583;DHT22;14230;45.382;10.998;2023-02-27T05:16:27;5.90;99.90
26583;DHT22;14230;45.382;10.998;2023-02-27T05:18:59;5.90;99.90
26583;DHT22;14230;45.382;10.998;2023-02-27T05:27:16;5.90;99.90
26583;DHT22;14230;45.382;10.998;2023-02-27T05:29:51;5.90;99.90
26583;DHT22;14230;45.382;10.998;2023-02-27T05:35:22;6.00;99.90
26583;DHT22;14230;45.382;10.998;2023-02-27T05:40:36;6.00;99.90
26583;DHT22;14230;45.382;10.998;2023-02-27T05:43:15;6.00;99.90
26583;DHT22;14230;45.382;10.998;2023-02-27T05:45:47;5.90;99.90
26583;DHT22;14230;45.382;10.998;2023-02-27T05:48:19;5.90;99.90
26583;DHT22;14230;45.382;10.998;2023-02-27T05:50:49;6.00;99.90
26583;DHT22;14230;45.382;10.998;2023-02-27T05:53:20;6.00;99.90
26583;DHT22;14230;45.382;10.998;2023-02-27T05:55:51;6.00;99.90
26583;DHT22;14230;45.382;10.998;2023-02-27T05:58:35;6.00;99.90
26583;DHT22;14230;45.382;10.998;2023-02-27T06:01:06;6.00;99.90
26583;DHT22;14230;45.382;10.998;2023-02-27T06:03:35;6.10;99.90
26583;DHT22;14230;45.382;10.998;2023-02-27T06:06:06;6.10;99.90
26583;DHT22;14230;45.382;10.998;2023-02-27T06:08:35;6.00;99.90
26583;DHT22;14230;45.382;10.998;2023-02-27T06:11:03;6.00;99.90
26583;DHT22;14230;45.382;10.998;2023-02-27T06:13:31;6.00;99.90
26583;DHT22;14230;45.382;10.998;2023-02-27T06:15:58;6.10;99.90
26583;DHT22;14230;45.382;10.998;2023-02-27T06:18:26;6.10;99.90
26583;DHT22;14230;45.382;10.998;2023-02-27T06:20:53;6.10;99.90
26583;DHT22;14230;45.382;10.998;2023-02-27T06:23:21;6.10;99.90
26583;DHT22;14230;45.382;10.998;2023-02-27T06:25:48;6.10;99.90
26583;DHT22;14230;45.382;10.998;2023-02-27T06:28:16;6.10;99.90
26583;DHT22;14230;45.382;10.998;2023-02-27T06:30:43;6.10;99.90
26583;DHT22;14230;45.382;10.998;2023-02-27T06:33:12;6.00;99.90
26583;DHT22;14230;45.382;10.998;2023-02-27T06:35:40;6.10;99.90
26583;DHT22;14230;45.382;10.998;2023-02-27T06:38:08;6.10;99.90
26583;DHT22;14230;45.382;10.998;2023-02-27T06:40:35;6.10;99.90
26583;DHT22;14230;45.382;10.998;2023-02-27T06:43:04;6.10;99.90
26583;DHT22;14230;45.382;10.998;2023-02-27T06:45:31;6.10;99.90
26583;DHT22;14230;45.382;10.998;2023-02-27T06:47:59;6.10;99.90
26583;DHT22;14230;45.382;10.998;2023-02-27T06:50:27;6.10;99.90
26583;DHT22;14230;45.382;10.998;2023-02-27T06:52:54;6.00;99.90
26583;DHT22;14230;45.382;10.998;2023-02-27T06:55:22;6.00;99.90
26583;DHT22;14230;45.382;10.998;2023-02-27T06:57:51;5.90;99.90
26583;DHT22;14230;45.382;10.998;2023-02-27T07:00:19;5.90;99.90
26583;DHT22;14230;45.382;10.998;2023-02-27T07:02:46;5.90;99.90
26583;DHT22;14230;45.382;10.998;2023-02-27T07:05:14;5.90;99.90
26583;DHT22;14230;45.382;10.998;2023-02-27T07:07:42;5.90;99.90
26583;DHT22;14230;45.382;10.998;2023-02-27T07:10:11;5.90;99.90
26583;DHT22;14230;45.382;10.998;2023-02-27T07:12:40;5.90;99.90
26583;DHT22;14230;45.382;10.998;2023-02-27T07:15:08;5.80;99.90
26583;DHT22;14230;45.382;10.998;2023-02-27T07:17:36;5.80;99.90
26583;DHT22;14230;45.382;10.998;2023-02-27T07:20:09;5.90;99.90
26583;DHT22;14230;45.382;10.998;2023-02-27T07:22:38;5.90;99.90
26583;DHT22;14230;45.382;10.998;2023-02-27T07:25:07;5.90;99.90
26583;DHT22;14230;45.382;10.998;2023-02-27T07:27:35;5.90;99.90
26583;DHT22;14230;45.382;10.998;2023-02-27T07:30:03;5.90;99.90
26583;DHT22;14230;45.382;10.998;2023-02-27T07:32:30;5.90;99.90
26583;DHT22;14230;45.382;10.998;2023-02-27T07:34:58;5.90;99.90
26583;DHT22;14230;45.382;10.998;2023-02-27T07:37:25;5.90;99.90
26583;DHT22;14230;45.382;10.998;2023-02-27T07:39:54;5.90;99.90
26583;DHT22;14230;45.382;10.998;2023-02-27T07:42:22;5.90;99.90
26583;DHT22;14230;45.382;10.998;2023-02-27T07:44:49;5.90;99.90
26583;DHT22;14230;45.382;10.998;2023-02-27T07:47:17;5.90;99.90
26583;DHT22;14230;45.382;10.998;2023-02-27T07:49:44;6.00;99.90
26583;DHT22;14230;45.382;10.998;2023-02-27T07:52:12;6.00;99.90
26583;DHT22;14230;45.382;10.998;2023-02-27T07:54:39;5.90;99.90
26583;DHT22;14230;45.382;10.998;2023-02-27T07:57:06;6.00;99.90
26583;DHT22;14230;45.382;10.998;2023-02-27T07:59:34;6.00;99.90
26583;DHT22;14230;45.382;10.998;2023-02-27T08:02:01;6.00;99.90
26583;DHT22;14230;45.382;10.998;2023-02-27T08:04:29;6.10;99.90
26583;DHT22;14230;45.382;10.998;2023-02-27T08:06:57;6.10;99.90
26583;DHT22;14230;45.382;10.998;2023-02-27T08:09:24;6.10;99.90
26583;DHT22;14230;45.382;10.998;2023-02-27T08:11:51;6.20;99.90
26583;DHT22;14230;45.382;10.998;2023-02-27T08:14:19;6.20;99.90
26583;DHT22;14230;45.382;10.998;2023-02-27T08:16:46;6.30;99.90
26583;DHT22;14230;45.382;10.998;2023-02-27T08:19:14;6.30;99.90
26583;DHT22;14230;45.382;10.998;2023-02-27T08:21:41;6.40;99.90
26583;DHT22;14230;45.382;10.998;2023-02-27T08:24:09;6.40;99.90
26583;DHT22;14230;45.382;10.998;2023-02-27T08:26:37;6.50;99.90
26583;DHT22;14230;45.382;10.998;2023-02-27T08:29:04;6.60;99.90
26583;DHT22;14230;45.382;10.998;2023-02-27T08:31:31;6.70;99.90
26583;DHT22;14230;45.382;10.998;2023-02-27T08:33:59;6.70;99.90
26583;DHT22;14230;45.382;10.998;2023-02-27T08:36:37;6.80;99.90
26583;DHT22;14230;45.382;10.998;2023-02-27T08:39:05;6.90;99.90
26583;DHT22;14230;45.382;10.998;2023-02-27T08:41:33;6.90;99.90
26583;DHT22;14230;45.382;10.998;2023-02-27T08:44:01;6.90;99.90
26583;DHT22;14230;45.382;10.998;2023-02-27T08:46:29;7.00;99.90
26583;DHT22;14230;45.382;10.998;2023-02-27T08:48:56;7.10;99.90
26583;DHT22;14230;45.382;10.998;2023-02-27T08:51:24;7.20;99.90
26583;DHT22;14230;45.382;10.998;2023-02-27T08:53:52;7.30;99.90
26583;DHT22;14230;45.382;10.998;2023-02-27T08:56:22;7.50;99.90
26583;DHT22;14230;45.382;10.998;2023-02-27T08:58:49;7.60;99.90
26583;DHT22;14230;45.382;10.998;2023-02-27T09:01:17;7.70;99.90
26583;DHT22;14230;45.382;10.998;2023-02-27T09:03:45;7.80;99.80
26583;DHT22;14230;45.382;10.998;2023-02-27T09:06:12;7.90;99.80
26583;DHT22;14230;45.382;10.998;2023-02-27T09:08:39;8.00;99.60
26583;DHT22;14230;45.382;10.998;2023-02-27T09:11:07;8.10;99.60
26583;DHT22;14230;45.382;10.998;2023-02-27T09:13:34;8.20;99.40
26583;DHT22;14230;45.382;10.998;2023-02-27T09:16:02;8.20;99.60
26583;DHT22;14230;45.382;10.998;2023-02-27T09:18:29;8.20;98.60
26583;DHT22;14230;45.382;10.998;2023-02-27T09:20:57;8.10;98.10
26583;DHT22;14230;45.382;10.998;2023-02-27T09:23:24;8.00;98.00
26583;DHT22;14230;45.382;10.998;2023-02-27T09:25:52;8.10;98.50
26583;DHT22;14230;45.382;10.998;2023-02-27T09:28:19;8.20;98.20
26583;DHT22;14230;45.382;10.998;2023-02-27T09:30:47;8.40;97.90
26583;DHT22;14230;45.382;10.998;2023-02-27T09:33:14;8.40;97.50
26583;DHT22;14230;45.382;10.998;2023-02-27T09:35:42;8.30;97.10
26583;DHT22;14230;45.382;10.998;2023-02-27T09:38:09;8.20;97.70
26583;DHT22;14230;45.382;10.998;2023-02-27T09:40:42;8.30;97.80
26583;DHT22;14230;45.382;10.998;2023-02-27T09:43:45;8.50;98.20
26583;DHT22;14230;45.382;10.998;2023-02-27T09:46:17;8.60;97.10
26583;DHT22;14230;45.382;10.998;2023-02-27T09:51:16;8.50;97.50
26583;DHT22;14230;45.382;10.998;2023-02-27T09:53:48;8.60;97.40
26583;DHT22;14230;45.382;10.998;2023-02-27T10:02:04;8.50;97.30
26583;DHT22;14230;45.382;10.998;2023-02-27T10:13:24;8.90;97.30
26583;DHT22;14230;45.382;10.998;2023-02-27T10:15:56;9.20;97.10
26583;DHT22;14230;45.382;10.998;2023-02-27T10:18:33;9.00;96.60
26583;DHT22;14230;45.382;10.998;2023-02-27T10:21:21;8.80;96.50
26583;DHT22;14230;45.382;10.998;2023-02-27T10:26:44;9.00;96.80
26583;DHT22;14230;45.382;10.998;2023-02-27T10:29:20;9.20;96.90
26583;DHT22;14230;45.382;10.998;2023-02-27T10:32:01;9.40;96.80
26583;DHT22;14230;45.382;10.998;2023-02-27T10:34:32;9.70;95.80
26583;DHT22;14230;45.382;10.998;2023-02-27T10:37:01;9.80;95.70
26583;DHT22;14230;45.382;10.998;2023-02-27T10:39:50;9.70;94.90
26583;DHT22;14230;45.382;10.998;2023-02-27T10:42:18;9.80;95.30
26583;DHT22;14230;45.382;10.998;2023-02-27T10:44:47;9.90;94.70
26583;DHT22;14230;45.382;10.998;2023-02-27T10:47:24;9.90;94.90
26583;DHT22;14230;45.382;10.998;2023-02-27T10:49:53;9.90;94.30
26583;DHT22;14230;45.382;10.998;2023-02-27T10:52:21;9.80;94.20
26583;DHT22;14230;45.382;10.998;2023-02-27T10:54:48;9.80;94.00
26583;DHT22;14230;45.382;10.998;2023-02-27T10:57:29;9.80;94.00
26583;DHT22;14230;45.382;10.998;2023-02-27T10:59:59;9.70;94.00
26583;DHT22;14230;45.382;10.998;2023-02-27T11:02:41;9.70;93.60
26583;DHT22;14230;45.382;10.998;2023-02-27T11:05:24;9.80;94.40
26583;DHT22;14230;45.382;10.998;2023-02-27T11:07:54;9.90;94.00
26583;DHT22;14230;45.382;10.998;2023-02-27T11:10:26;9.70;93.90
26583;DHT22;14230;45.382;10.998;2023-02-27T11:12:59;9.70;94.00
26583;DHT22;14230;45.382;10.998;2023-02-27T11:15:31;10.00;93.90
26583;DHT22;14230;45.382;10.998;2023-02-27T11:18:28;9.90;93.50
26583;DHT22;14230;45.382;10.998;2023-02-27T11:23:51;9.50;93.20
26583;DHT22;14230;45.382;10.998;2023-02-27T11:26:40;9.50;93.00
26583;DHT22;14230;45.382;10.998;2023-02-27T11:29:20;9.40;93.20
26583;DHT22;14230;45.382;10.998;2023-02-27T11:32:11;9.40;93.10
26583;DHT22;14230;45.382;10.998;2023-02-27T11:34:46;9.50;93.60
26583;DHT22;14230;45.382;10.998;2023-02-27T11:37:26;9.50;93.60
26583;DHT22;14230;45.382;10.998;2023-02-27T11:40:15;9.60;94.00
26583;DHT22;14230;45.382;10.998;2023-02-27T11:42:53;9.70;93.50
26583;DHT22;14230;45.382;10.998;2023-02-27T11:45:36;9.80;94.10
26583;DHT22;14230;45.382;10.998;2023-02-27T11:48:27;9.80;93.60
26583;DHT22;14230;45.382;10.998;2023-02-27T11:51:19;9.90;94.10
26583;DHT22;14230;45.382;10.998;2023-02-27T11:54:17;10.00;94.00
26583;DHT22;14230;45.382;10.998;2023-02-27T11:56:57;10.20;94.20
26583;DHT22;14230;45.382;10.998;2023-02-27T11:59:42;10.20;93.10
26583;DHT22;14230;45.382;10.998;2023-02-27T12:02:46;10.00;93.20
26583;DHT22;14230;45.382;10.998;2023-02-27T12:05:17;10.20;93.30
26583;DHT22;14230;45.382;10.998;2023-02-27T12:07:51;10.30;93.70
26583;DHT22;14230;45.382;10.998;2023-02-27T12:10:23;10.30;93.10
26583;DHT22;14230;45.382;10.998;2023-02-27T12:12:53;10.40;93.10
26583;DHT22;14230;45.382;10.998;2023-02-27T12:18:22;10.60;93.10
26583;DHT22;14230;45.382;10.998;2023-02-27T12:23:42;11.00;92.70
26583;DHT22;14230;45.382;10.998;2023-02-27T12:26:13;10.90;92.50
26583;DHT22;14230;45.382;10.998;2023-02-27T12:37:36;10.90;92.20
26583;DHT22;14230;45.382;10.998;2023-02-27T12:40:04;10.80;91.20
26583;DHT22;14230;45.382;10.998;2023-02-27T12:42:59;10.80;92.00
26583;DHT22;14230;45.382;10.998;2023-02-27T12:45:54;11.10;91.60
26583;DHT22;14230;45.382;10.998;2023-02-27T12:48:34;11.20;91.10
26583;DHT22;14230;45.382;10.998;2023-02-27T13:04:44;10.40;91.20
26583;DHT22;14230;45.382;10.998;2023-02-27T13:07:23;10.50;92.00
26583;DHT22;14230;45.382;10.998;2023-02-27T13:09:53;10.40;92.30
26583;DHT22;14230;45.382;10.998;2023-02-27T13:15:15;10.70;91.40
26583;DHT22;14230;45.382;10.998;2023-02-27T13:17:50;10.90;91.70
26583;DHT22;14230;45.382;10.998;2023-02-27T13:25:35;11.10;91.40
26583;DHT22;14230;45.382;10.998;2023-02-27T13:28:10;11.00;91.10
26583;DHT22;14230;45.382;10.998;2023-02-27T13:30:47;10.80;91.30
26583;DHT22;14230;45.382;10.998;2023-02-27T13:36:05;10.90;91.40
26583;DHT22;14230;45.382;10.998;2023-02-27T13:38:49;10.90;92.00
26583;DHT22;14230;45.382;10.998;2023-02-27T13:51:54;11.20;91.60
26583;DHT22;14230;45.382;10.998;2023-02-27T13:54:30;11.10;91.40
26583;DHT22;14230;45.382;10.998;2023-02-27T13:57:05;11.20;91.30
26583;DHT22;14230;45.382;10.998;2023-02-27T13:59:38;10.90;91.20
26583;DHT22;14230;45.382;10.998;2023-02-27T14:04:38;10.50;91.50
26583;DHT22;14230;45.382;10.998;2023-02-27T14:07:16;10.40;91.70
26583;DHT22;14230;45.382;10.998;2023-02-27T14:09:51;10.40;92.20
26583;DHT22;14230;45.382;10.998;2023-02-27T14:12:38;10.40;92.00
26583;DHT22;14230;45.382;10.998;2023-02-27T14:17:53;10.40;91.80
26583;DHT22;14230;45.382;10.998;2023-02-27T14:23:23;10.20;92.60
26583;DHT22;14230;45.382;10.998;2023-02-27T14:25:56;10.20;92.80
26583;DHT22;14230;45.382;10.998;2023-02-27T14:31:17;9.90;93.10
26583;DHT22;14230;45.382;10.998;2023-02-27T14:33:48;9.90;93.10
26583;DHT22;14230;45.382;10.998;2023-02-27T14:37:17;9.90;93.20
26583;DHT22;14230;45.382;10.998;2023-02-27T14:39:29;10.00;93.80
26583;DHT22;14230;45.382;10.998;2023-02-27T14:44:44;9.90;92.70
26583;DHT22;14230;45.382;10.998;2023-02-27T14:49:49;9.80;92.90
26583;DHT22;14230;45.382;10.998;2023-02-27T14:52:24;9.80;92.80
26583;DHT22;14230;45.382;10.998;2023-02-27T14:54:52;9.70;92.60
26583;DHT22;14230;45.382;10.998;2023-02-27T14:57:31;9.80;93.50
26583;DHT22;14230;45.382;10.998;2023-02-27T14:59:59;9.80;93.80
26583;DHT22;14230;45.382;10.998;2023-02-27T15:02:29;9.80;93.70
26583;DHT22;14230;45.382;10.998;2023-02-27T15:07:34;9.50;93.90
26583;DHT22;14230;45.382;10.998;2023-02-27T15:10:04;9.50;93.60
26583;DHT22;14230;45.382;10.998;2023-02-27T15:12:36;9.40;93.80
26583;DHT22;14230;45.382;10.998;2023-02-27T15:15:06;9.30;93.60
26583;DHT22;14230;45.382;10.998;2023-02-27T15:17:39;9.30;94.10
26583;DHT22;14230;45.382;10.998;2023-02-27T15:20:27;9.20;94.00
26583;DHT22;14230;45.382;10.998;2023-02-27T15:23:01;9.20;94.50
26583;DHT22;14230;45.382;10.998;2023-02-27T15:25:37;9.20;94.20
26583;DHT22;14230;45.382;10.998;2023-02-27T15:28:20;9.10;94.00
26583;DHT22;14230;45.382;10.998;2023-02-27T15:30:49;9.10;93.90
26583;DHT22;14230;45.382;10.998;2023-02-27T15:33:28;9.10;94.30
26583;DHT22;14230;45.382;10.998;2023-02-27T15:35:57;9.20;94.00
26583;DHT22;14230;45.382;10.998;2023-02-27T15:38:32;9.10;93.90
26583;DHT22;14230;45.382;10.998;2023-02-27T15:41:02;9.10;94.00
26583;DHT22;14230;45.382;10.998;2023-02-27T15:43:30;9.20;94.30
26583;DHT22;14230;45.382;10.998;2023-02-27T15:45:58;9.20;94.00
26583;DHT22;14230;45.382;10.998;2023-02-27T15:48:26;9.30;94.00
26583;DHT22;14230;45.382;10.998;2023-02-27T15:50:57;9.30;94.10
26583;DHT22;14230;45.382;10.998;2023-02-27T15:53:27;9.20;94.00
26583;DHT22;14230;45.382;10.998;2023-02-27T15:55:57;9.20;94.10
26583;DHT22;14230;45.382;10.998;2023-02-27T15:58:36;9.10;94.50
26583;DHT22;14230;45.382;10.998;2023-02-27T16:01:25;9.10;94.10
26583;DHT22;14230;45.382;10.998;2023-02-27T16:03:56;9.00;94.60
26583;DHT22;14230;45.382;10.998;2023-02-27T16:06:26;9.00;94.60
26583;DHT22;14230;45.382;10.998;2023-02-27T16:09:00;8.90;94.70
26583;DHT22;14230;45.382;10.998;2023-02-27T16:11:35;8.90;95.10
26583;DHT22;14230;45.382;10.998;2023-02-27T16:14:03;8.90;95.20
26583;DHT22;14230;45.382;10.998;2023-02-27T16:16:36;8.80;95.80
26583;DHT22;14230;45.382;10.998;2023-02-27T16:19:15;8.70;96.10
26583;DHT22;14230;45.382;10.998;2023-02-27T16:22:22;8.70;96.30
26583;DHT22;14230;45.382;10.998;2023-02-27T16:24:51;8.70;96.60
26583;DHT22;14230;45.382;10.998;2023-02-27T16:27:24;8.60;96.50
26583;DHT22;14230;45.382;10.998;2023-02-27T16:29:55;8.50;96.90
26583;DHT22;14230;45.382;10.998;2023-02-27T16:32:26;8.50;96.80
26583;DHT22;14230;45.382;10.998;2023-02-27T16:35:17;8.50;97.00
26583;DHT22;14230;45.382;10.998;2023-02-27T16:37:45;8.40;97.00
26583;DHT22;14230;45.382;10.998;2023-02-27T16:42:43;8.30;97.00
26583;DHT22;14230;45.382;10.998;2023-02-27T16:45:23;8.30;97.30
26583;DHT22;14230;45.382;10.998;2023-02-27T16:47:53;8.20;97.60
26583;DHT22;14230;45.382;10.998;2023-02-27T16:50:27;8.20;97.90
26583;DHT22;14230;45.382;10.998;2023-02-27T16:52:55;8.20;98.00
26583;DHT22;14230;45.382;10.998;2023-02-27T16:55:24;8.10;98.20
26583;DHT22;14230;45.382;10.998;2023-02-27T16:57:52;8.10;98.70
26583;DHT22;14230;45.382;10.998;2023-02-27T17:00:20;8.00;98.90
26583;DHT22;14230;45.382;10.998;2023-02-27T17:02:49;8.00;98.90
26583;DHT22;14230;45.382;10.998;2023-02-27T17:05:19;7.90;99.30
26583;DHT22;14230;45.382;10.998;2023-02-27T17:07:46;7.90;98.90
26583;DHT22;14230;45.382;10.998;2023-02-27T17:10:16;7.90;99.00
26583;DHT22;14230;45.382;10.998;2023-02-27T17:12:44;7.80;99.00
26583;DHT22;14230;45.382;10.998;2023-02-27T17:15:14;7.80;99.30
26583;DHT22;14230;45.382;10.998;2023-02-27T17:17:42;7.70;99.60
26583;DHT22;14230;45.382;10.998;2023-02-27T17:20:11;7.60;99.70
26583;DHT22;14230;45.382;10.998;2023-02-27T17:22:41;7.70;99.50
26583;DHT22;14230;45.382;10.998;2023-02-27T17:25:09;7.60;99.30
26583;DHT22;14230;45.382;10.998;2023-02-27T17:27:37;7.60;99.50
26583;DHT22;14230;45.382;10.998;2023-02-27T17:30:05;7.50;99.30
26583;DHT22;14230;45.382;10.998;2023-02-27T17:32:33;7.50;99.50
26583;DHT22;14230;45.382;10.998;2023-02-27T17:35:01;7.50;99.60
26583;DHT22;14230;45.382;10.998;2023-02-27T17:37:28;7.40;99.80
26583;DHT22;14230;45.382;10.998;2023-02-27T17:39:56;7.40;99.90
26583;DHT22;14230;45.382;10.998;2023-02-27T17:42:23;7.40;99.90
26583;DHT22;14230;45.382;10.998;2023-02-27T17:44:52;7.30;99.90
26583;DHT22;14230;45.382;10.998;2023-02-27T17:47:19;7.20;99.90
26583;DHT22;14230;45.382;10.998;2023-02-27T17:49:47;7.30;99.90
26583;DHT22;14230;45.382;10.998;2023-02-27T17:52:14;7.20;99.90
26583;DHT22;14230;45.382;10.998;2023-02-27T17:54:42;7.20;99.90
26583;DHT22;14230;45.382;10.998;2023-02-27T17:57:09;7.20;99.90
26583;DHT22;14230;45.382;10.998;2023-02-27T17:59:39;7.20;99.90
26583;DHT22;14230;45.382;10.998;2023-02-27T18:02:09;7.20;99.90
26583;DHT22;14230;45.382;10.998;2023-02-27T18:04:38;7.20;99.90
26583;DHT22;14230;45.382;10.998;2023-02-27T18:07:05;7.20;99.90
26583;DHT22;14230;45.382;10.998;2023-02-27T18:09:33;7.20;99.90
26583;DHT22;14230;45.382;10.998;2023-02-27T18:12:00;7.20;99.90
26583;DHT22;14230;45.382;10.998;2023-02-27T18:14:29;7.20;99.90
26583;DHT22;14230;45.382;10.998;2023-02-27T18:16:56;7.20;99.90
26583;DHT22;14230;45.382;10.998;2023-02-27T18:19:23;7.20;99.90
26583;DHT22;14230;45.382;10.998;2023-02-27T18:21:51;7.20;99.90
26583;DHT22;14230;45.382;10.998;2023-02-27T18:24:18;7.20;99.90
26583;DHT22;14230;45.382;10.998;2023-02-27T18:26:46;7.20;99.90
26583;DHT22;14230;45.382;10.998;2023-02-27T18:29:13;7.20;99.90
26583;DHT22;14230;45.382;10.998;2023-02-27T18:31:44;7.20;99.90
26583;DHT22;14230;45.382;10.998;2023-02-27T18:34:12;7.20;99.90
26583;DHT22;14230;45.382;10.998;2023-02-27T18:36:40;7.20;99.90
26583;DHT22;14230;45.382;10.998;2023-02-27T18:39:08;7.20;99.90
26583;DHT22;14230;45.382;10.998;2023-02-27T18:41:36;7.20;99.90
26583;DHT22;14230;45.382;10.998;2023-02-27T18:44:06;7.20;99.90
26583;DHT22;14230;45.382;10.998;2023-02-27T18:46:34;7.10;99.90
26583;DHT22;14230;45.382;10.998;2023-02-27T18:49:01;7.20;99.90